Daytona Beach, FL

11:20 AM EST on November 23, 2014 (GMT -0500)
Daytona Beach International | Change Station
CLOSE
Current Station
Airport
Location: Daytona Beach,
Elevation: 33 ft
Nearby Weather Stations
Active Advisory: Coastal Hazard Statement

Elev 33 ft 29.18 °N, 81.06 °W | Updated 27 minutes ago

Overcast
Overcast
78 °F
Feels Like 78 °F
N
13
Wind Variable Wind from South
Gusts 23 mph

Today
High -- | Low -- °F
--% Chance of Precip.
Yesterday
High -- | Low -- °F
Precip. -- in
6:54 AM 5:26 PM
New Moon, 2% visible
Pressure 30.01 in
Visibility 10.0 miles
Clouds Mostly Cloudy 1600 ft
Mostly Cloudy 2600 ft
Overcast 18000 ft
Dew Point 71 °F
Humidity 79%
Rainfall 0.22 in
Snow Depth Not available.
UV 2 out of 12
Pollen .50 out of 12
Air Quality Not available.
Flu Activity Not available.
METAR KDAB 231553Z 18011G20KT 10SM BKN016 BKN026 OVC180 26/22 A3002 RMK AO2 SLP163 T02560217

More Conditions Fewer Conditions

Pressure 30.01 in
Visibility 10.0 miles
Clouds Mostly Cloudy 1600 ft
Mostly Cloudy 2600 ft
Overcast 18000 ft
Dew Point 71 °F
Humidity 79%
Rainfall 0.22 in
Snow Depth Not available.
UV 2 out of 12
Pollen .50 out of 12
Air Quality Not available.
Flu Activity Not available.
METAR KDAB 231553Z 18011G20KT 10SM BKN016 BKN026 OVC180 26/22 A3002 RMK AO2 SLP163 T02560217

More Conditions Fewer Conditions

10-Day Weather Forecast

Almanac

Astronomy

Nov. 23, 2014 Rise Set
Actual Time
Civil Twilight
Nautical Twilight
Astronomical Twilight
Moon
Length of Visible Light
Length of Day
Tomorrow will be .
, % of the Moon is Illuminated

Today's Extremes

State Highs State Lows

Community

WunderPhotos

Upload Photos

1,773,089 photos uploaded!

WunderBlogs® & News

Nearby

Air Quality

  Air Quality AQ Index Pollutant
Not available.

Snow Depth

Station Depth Elevation

Earthquake Activity

City Distance Mag. Time & Date
Minimum magnitude displayed is 2.5.

Coastal Water Temperatures

Place Temperature

Nearby Weather Stations